createdAt,value
2018-01-13T00:00:07.175Z,37.64
2018-01-13T00:01:07.639Z,37.64
2018-01-13T00:02:08.107Z,37.64
2018-01-13T00:03:19.902Z,37.65
2018-01-13T00:04:09.038Z,37.63
2018-01-13T00:05:09.500Z,37.63
2018-01-13T00:06:09.970Z,37.63
2018-01-13T00:07:10.438Z,37.62
2018-01-13T00:08:10.903Z,37.64
2018-01-13T00:09:11.364Z,37.64
2018-01-13T00:10:11.836Z,37.66
2018-01-13T00:11:12.302Z,37.66
2018-01-13T00:12:12.769Z,37.67
2018-01-13T00:13:13.235Z,37.67
2018-01-13T00:15:14.173Z,37.68
2018-01-13T00:16:14.630Z,37.69
2018-01-13T00:17:15.100Z,37.69
2018-01-13T00:19:16.033Z,37.68
2018-01-13T00:20:16.499Z,37.67
2018-01-13T00:21:16.964Z,37.69
2018-01-13T00:22:17.431Z,37.66
2018-01-13T00:23:17.899Z,37.68
2018-01-13T00:24:18.363Z,37.66
2018-01-13T00:25:18.831Z,37.67
2018-01-13T00:26:19.296Z,37.69
2018-01-13T00:27:19.760Z,37.72
2018-01-13T00:28:20.228Z,37.71
2018-01-13T00:29:20.697Z,37.73
2018-01-13T00:30:21.164Z,37.73
2018-01-13T00:31:21.628Z,37.74
2018-01-13T00:32:22.094Z,37.72
2018-01-13T00:33:22.562Z,37.74
2018-01-13T00:34:23.023Z,37.75
2018-01-13T00:35:23.493Z,37.73
2018-01-13T00:36:23.961Z,37.74
2018-01-13T00:37:24.425Z,37.73
2018-01-13T00:38:24.889Z,37.74
2018-01-13T00:41:26.292Z,37.75
2018-01-13T00:43:27.223Z,37.80
2018-01-13T00:44:27.690Z,37.82
2018-01-13T00:45:28.152Z,37.84
2018-01-13T00:46:28.622Z,37.82
2018-01-13T00:47:29.087Z,37.86
2018-01-13T00:49:30.016Z,37.88
2018-01-13T00:50:30.488Z,37.88
2018-01-13T00:51:30.955Z,37.90
2018-01-13T00:52:31.420Z,37.92
2018-01-13T00:54:32.352Z,37.94
2018-01-13T00:55:32.823Z,37.95
2018-01-13T00:56:33.282Z,37.97
2018-01-13T00:58:34.217Z,37.95
2018-01-13T00:59:34.687Z,37.96
2018-01-13T01:00:35.151Z,37.98
2018-01-13T01:01:35.619Z,37.97
2018-01-13T01:02:36.084Z,38.00
2018-01-13T01:04:37.016Z,38.02
2018-01-13T01:05:37.529Z,38.00
2018-01-13T01:06:37.948Z,37.98
2018-01-13T01:07:38.412Z,37.99
2018-01-13T01:08:38.881Z,37.97
2018-01-13T01:09:39.348Z,37.98
2018-01-13T01:10:39.813Z,37.99
2018-01-13T01:11:40.279Z,38.00
2018-01-13T01:12:40.749Z,38.00
2018-01-13T01:14:41.675Z,38.03
2018-01-13T01:15:42.144Z,38.04
2018-01-13T01:17:43.076Z,38.08
2018-01-13T01:18:43.548Z,38.10
2018-01-13T01:19:44.010Z,38.10
2018-01-13T01:20:44.477Z,38.12
2018-01-13T01:21:44.944Z,38.15
2018-01-13T01:22:45.409Z,38.17
2018-01-13T01:23:45.874Z,38.17
2018-01-13T01:24:46.341Z,38.21
2018-01-13T01:25:46.807Z,38.23
2018-01-13T01:26:47.275Z,38.25
2018-01-13T01:27:47.741Z,38.26
2018-01-13T01:28:48.206Z,38.27
2018-01-13T01:29:48.669Z,38.27
2018-01-13T01:30:49.140Z,38.30
2018-01-13T01:31:49.606Z,38.30
2018-01-13T01:32:50.072Z,38.33
2018-01-13T01:34:51.004Z,38.36
2018-01-13T01:35:51.472Z,38.36
2018-01-13T01:36:51.933Z,38.37
2018-01-13T01:38:52.870Z,38.45
2018-01-13T01:39:53.335Z,38.48
2018-01-13T01:40:53.797Z,38.50
2018-01-13T01:41:54.269Z,38.52
2018-01-13T01:42:54.736Z,38.53
2018-01-13T01:43:55.202Z,38.52
2018-01-13T01:44:55.667Z,38.55
2018-01-13T01:45:56.135Z,38.53
2018-01-13T01:46:56.601Z,38.51
2018-01-13T01:47:57.064Z,38.49
2018-01-13T01:48:57.533Z,38.49
2018-01-13T01:49:58.001Z,38.51
2018-01-13T01:50:58.466Z,38.51
2018-01-13T01:51:58.931Z,38.51
2018-01-13T01:52:59.399Z,38.47
2018-01-13T01:55:00.331Z,38.48
2018-01-13T01:56:00.796Z,38.49
2018-01-13T01:57:01.264Z,38.49
2018-01-13T01:58:01.729Z,38.51
2018-01-13T01:59:02.191Z,38.53
2018-01-13T02:00:13.988Z,38.53
2018-01-13T02:01:03.134Z,38.52
2018-01-13T02:03:04.061Z,38.53
2018-01-13T02:04:04.528Z,38.52
2018-01-13T02:05:04.993Z,38.52
2018-01-13T02:06:05.457Z,38.53
2018-01-13T02:07:05.927Z,38.50
2018-01-13T02:08:06.394Z,38.58
2018-01-13T02:09:06.862Z,38.60
2018-01-13T02:10:07.321Z,38.63
2018-01-13T02:11:07.794Z,38.64
2018-01-13T02:12:08.257Z,38.71
2018-01-13T02:13:08.724Z,38.75
2018-01-13T02:14:09.196Z,38.78
2018-01-13T02:15:09.710Z,38.82
2018-01-13T02:16:10.122Z,38.87
2018-01-13T02:17:10.587Z,38.91
2018-01-13T02:18:11.057Z,38.97
2018-01-13T02:19:11.525Z,38.99
2018-01-13T02:20:11.989Z,39.01
2018-01-13T02:21:12.453Z,39.02
2018-01-13T02:23:13.393Z,39.11
2018-01-13T02:24:13.854Z,39.13
2018-01-13T02:25:14.321Z,39.15
2018-01-13T02:26:14.787Z,39.18
2018-01-13T02:27:15.252Z,39.20
2018-01-13T02:28:15.718Z,39.23
2018-01-13T02:29:16.186Z,39.28
2018-01-13T02:30:16.652Z,39.33
2018-01-13T02:31:17.119Z,39.33
2018-01-13T02:32:17.584Z,39.36
2018-01-13T02:33:18.051Z,39.39
2018-01-13T02:34:18.517Z,39.43
2018-01-13T02:35:18.983Z,39.46
2018-01-13T02:36:19.449Z,39.48
2018-01-13T02:37:19.915Z,39.52
2018-01-13T02:38:20.382Z,39.54
2018-01-13T02:39:20.845Z,39.58
2018-01-13T02:40:33.097Z,39.59
2018-01-13T02:41:21.781Z,39.59
2018-01-13T02:42:22.248Z,39.63
2018-01-13T02:43:22.715Z,39.63
2018-01-13T02:44:23.180Z,39.63
2018-01-13T02:45:23.647Z,39.64
2018-01-13T02:46:24.109Z,39.66
2018-01-13T02:47:24.579Z,39.66
2018-01-13T02:48:25.046Z,39.65
2018-01-13T02:49:25.511Z,39.63
2018-01-13T02:50:25.976Z,39.62
2018-01-13T02:51:26.444Z,39.63
2018-01-13T02:52:26.912Z,39.61
2018-01-13T02:53:27.378Z,39.65
2018-01-13T02:54:27.843Z,39.64
2018-01-13T02:55:28.309Z,39.67
2018-01-13T02:57:29.240Z,39.68
2018-01-13T02:58:29.709Z,39.67
2018-01-13T02:59:30.174Z,39.69
2018-01-13T03:00:30.641Z,39.69
2018-01-13T03:01:31.102Z,39.74
2018-01-13T03:02:31.574Z,39.75
2018-01-13T03:03:32.040Z,39.74
2018-01-13T03:04:32.506Z,39.73
2018-01-13T03:05:32.973Z,39.74
2018-01-13T03:06:33.444Z,39.72
2018-01-13T03:07:33.904Z,39.70
2018-01-13T03:08:34.367Z,39.71
2018-01-13T03:09:34.840Z,39.72
2018-01-13T03:10:35.305Z,39.73
2018-01-13T03:11:35.770Z,39.72
2018-01-13T03:12:36.236Z,39.76
2018-01-13T03:13:36.703Z,39.75
2018-01-13T03:14:37.168Z,39.75
2018-01-13T03:15:37.635Z,39.74
2018-01-13T03:16:38.103Z,39.74
2018-01-13T03:17:38.567Z,39.72
2018-01-13T03:18:39.037Z,39.71
2018-01-13T03:19:39.501Z,39.68
2018-01-13T03:20:39.962Z,39.66
2018-01-13T03:21:40.430Z,39.66
2018-01-13T03:22:40.896Z,39.66
2018-01-13T03:23:41.359Z,39.65
2018-01-13T03:24:41.833Z,39.65
2018-01-13T03:26:42.760Z,39.60
2018-01-13T03:27:43.226Z,39.62
2018-01-13T03:28:43.695Z,39.62
2018-01-13T03:29:44.163Z,39.61
2018-01-13T03:30:44.633Z,39.56
2018-01-13T03:31:45.095Z,39.53
2018-01-13T03:32:45.563Z,39.55
2018-01-13T03:33:46.029Z,39.50
2018-01-13T03:34:46.497Z,39.49
2018-01-13T03:35:46.962Z,39.50
2018-01-13T03:36:47.429Z,39.52
2018-01-13T03:37:47.894Z,39.53
2018-01-13T03:38:48.363Z,39.55
2018-01-13T03:39:48.825Z,39.59
2018-01-13T03:41:49.760Z,39.63
2018-01-13T03:43:50.685Z,39.67
2018-01-13T03:44:51.158Z,39.68
2018-01-13T03:45:51.625Z,39.68
2018-01-13T03:47:04.132Z,39.71
2018-01-13T03:47:52.552Z,39.73
2018-01-13T03:48:53.024Z,39.74
2018-01-13T03:49:53.490Z,39.78
2018-01-13T03:50:53.957Z,39.79
2018-01-13T03:51:54.422Z,39.81
2018-01-13T03:52:54.887Z,39.81
2018-01-13T03:53:55.354Z,39.82
2018-01-13T03:54:55.817Z,39.83
2018-01-13T03:55:56.288Z,39.82
2018-01-13T03:57:57.220Z,39.81
2018-01-13T04:00:58.618Z,39.84
2018-01-13T04:01:59.086Z,39.85
2018-01-13T04:02:59.550Z,39.85
2018-01-13T04:04:00.022Z,39.86
2018-01-13T04:05:00.483Z,39.90
2018-01-13T04:06:00.944Z,39.89
2018-01-13T04:08:01.883Z,39.88
2018-01-13T04:09:02.348Z,39.84
2018-01-13T04:10:02.817Z,39.87
2018-01-13T04:11:03.283Z,39.87
2018-01-13T04:12:03.747Z,39.83
2018-01-13T04:14:04.681Z,39.85
2018-01-13T04:15:05.196Z,39.89
2018-01-13T04:16:05.612Z,39.88
2018-01-13T04:17:06.078Z,39.89
2018-01-13T04:18:06.546Z,39.91
2018-01-13T04:19:07.012Z,39.90
2018-01-13T04:20:07.479Z,39.90
2018-01-13T04:21:07.945Z,39.88
2018-01-13T04:22:08.408Z,39.89
2018-01-13T04:23:08.876Z,39.86
2018-01-13T04:24:09.343Z,39.88
2018-01-13T04:25:09.804Z,39.90
2018-01-13T04:26:10.277Z,39.92
2018-01-13T04:27:10.742Z,39.95
2018-01-13T04:28:23.147Z,39.98
2018-01-13T04:29:11.674Z,39.97
2018-01-13T04:30:12.141Z,40.00
2018-01-13T04:31:12.607Z,39.96
2018-01-13T04:32:13.072Z,40.00
2018-01-13T04:33:13.539Z,40.02
2018-01-13T04:34:14.007Z,40.02
2018-01-13T04:35:14.472Z,40.03
2018-01-13T04:36:14.934Z,40.04
2018-01-13T04:37:15.403Z,40.04
2018-01-13T04:38:15.871Z,40.04
2018-01-13T04:39:16.336Z,40.07
2018-01-13T04:40:16.803Z,40.07
2018-01-13T04:41:17.269Z,40.10
2018-01-13T04:42:17.737Z,40.12
2018-01-13T04:43:18.195Z,40.13
2018-01-13T04:44:18.668Z,40.10
2018-01-13T04:45:19.133Z,40.10
2018-01-13T04:46:19.599Z,40.11
2018-01-13T04:47:20.063Z,40.11
2018-01-13T04:48:20.534Z,40.15
2018-01-13T04:49:20.998Z,40.17
2018-01-13T04:50:21.466Z,40.17
2018-01-13T04:52:22.398Z,40.12
2018-01-13T04:53:22.863Z,40.13
2018-01-13T04:54:23.330Z,40.11
2018-01-13T04:55:23.794Z,40.13
2018-01-13T04:56:24.261Z,40.13
2018-01-13T04:57:24.733Z,40.13
2018-01-13T04:58:25.189Z,40.15
2018-01-13T04:59:25.660Z,40.16
2018-01-13T05:01:26.588Z,40.11
2018-01-13T05:02:27.060Z,40.10
2018-01-13T05:03:27.528Z,40.12
2018-01-13T05:05:28.454Z,40.11
2018-01-13T05:06:28.923Z,40.13
2018-01-13T05:08:29.955Z,40.08
2018-01-13T05:09:30.323Z,40.09
2018-01-13T05:10:30.789Z,40.11
2018-01-13T05:11:31.253Z,40.11
2018-01-13T05:12:31.719Z,40.14
2018-01-13T05:13:32.181Z,40.15
2018-01-13T05:14:32.653Z,40.14
2018-01-13T05:15:33.116Z,40.14
2018-01-13T05:16:33.588Z,40.13
2018-01-13T05:17:34.051Z,40.13
2018-01-13T05:18:34.518Z,40.15
2018-01-13T05:19:34.983Z,40.16
2018-01-13T05:20:35.446Z,40.16
2018-01-13T05:21:35.916Z,40.15
2018-01-13T05:22:36.384Z,40.18
2018-01-13T05:23:36.849Z,40.19
2018-01-13T05:24:37.314Z,40.18
2018-01-13T05:25:37.778Z,40.15
2018-01-13T05:26:38.248Z,40.15
2018-01-13T05:28:39.180Z,40.11
2018-01-13T05:29:39.640Z,40.10
2018-01-13T05:30:40.113Z,40.10
2018-01-13T05:31:40.580Z,40.08
2018-01-13T05:32:41.043Z,40.10
2018-01-13T05:33:41.511Z,40.11
2018-01-13T05:34:41.971Z,40.12
2018-01-13T05:35:42.446Z,40.14
2018-01-13T05:36:42.908Z,40.19
2018-01-13T05:37:43.374Z,40.19
2018-01-13T05:38:43.840Z,40.21
2018-01-13T05:39:44.310Z,40.24
2018-01-13T05:42:45.706Z,40.28
2018-01-13T05:43:58.216Z,40.31
2018-01-13T05:44:46.638Z,40.33
2018-01-13T05:45:47.105Z,40.33
2018-01-13T05:46:47.570Z,40.35
2018-01-13T05:47:48.039Z,40.36
2018-01-13T05:48:48.502Z,40.40
2018-01-13T05:49:48.968Z,40.38
2018-01-13T05:50:49.437Z,40.40
2018-01-13T05:51:49.902Z,40.40
2018-01-13T05:52:50.368Z,40.42
2018-01-13T05:53:50.834Z,40.42
2018-01-13T05:54:51.299Z,40.44
2018-01-13T05:55:51.764Z,40.44
2018-01-13T05:56:52.232Z,40.45
2018-01-13T05:58:53.164Z,40.50
2018-01-13T05:59:53.631Z,40.49
2018-01-13T06:00:54.095Z,40.52
2018-01-13T06:01:54.563Z,40.53
2018-01-13T06:02:55.027Z,40.51
2018-01-13T06:04:07.283Z,40.50
2018-01-13T06:04:55.961Z,40.52
2018-01-13T06:05:56.427Z,40.45
2018-01-13T06:06:56.889Z,40.43
2018-01-13T06:07:57.388Z,40.43
2018-01-13T06:08:57.826Z,40.41
2018-01-13T06:09:58.292Z,40.39
2018-01-13T06:10:58.756Z,40.39
2018-01-13T06:11:59.219Z,40.38
2018-01-13T06:12:59.689Z,40.37
2018-01-13T06:14:00.156Z,40.34
2018-01-13T06:15:00.622Z,40.33
2018-01-13T06:16:01.089Z,40.31
2018-01-13T06:17:01.555Z,40.29
2018-01-13T06:18:02.021Z,40.31
2018-01-13T06:19:02.486Z,40.32
2018-01-13T06:20:02.947Z,40.31
2018-01-13T06:21:03.419Z,40.33
2018-01-13T06:22:03.885Z,40.31
2018-01-13T06:23:04.355Z,40.31
2018-01-13T06:25:05.284Z,40.29
2018-01-13T06:26:05.749Z,40.28
2018-01-13T06:27:06.216Z,40.25
2018-01-13T06:28:06.684Z,40.27
2018-01-13T06:29:07.149Z,40.25
2018-01-13T06:30:19.250Z,40.26
2018-01-13T06:31:08.082Z,40.27
2018-01-13T06:32:08.547Z,40.26
2018-01-13T06:33:09.012Z,40.25
2018-01-13T06:34:09.478Z,40.22
2018-01-13T06:35:09.947Z,40.20
2018-01-13T06:36:10.410Z,40.21
2018-01-13T06:38:11.338Z,40.15
2018-01-13T06:39:11.811Z,40.11
2018-01-13T06:40:12.275Z,40.05
2018-01-13T06:42:13.209Z,40.07
2018-01-13T06:43:13.674Z,40.07
2018-01-13T06:44:14.142Z,40.03
2018-01-13T06:45:14.608Z,40.00
2018-01-13T06:46:15.072Z,40.03
2018-01-13T06:47:15.541Z,40.02
2018-01-13T06:48:16.002Z,39.97
2018-01-13T06:49:16.470Z,39.98
2018-01-13T06:50:16.937Z,39.99
2018-01-13T06:51:17.407Z,39.98
2018-01-13T06:52:17.870Z,39.96
2018-01-13T06:53:18.338Z,39.94
2018-01-13T06:54:18.803Z,39.93
2018-01-13T06:56:19.731Z,39.92
2018-01-13T06:58:20.668Z,39.95
2018-01-13T06:59:21.132Z,39.99
2018-01-13T07:00:21.601Z,40.00
2018-01-13T07:01:22.065Z,40.02
2018-01-13T07:02:22.533Z,40.02
2018-01-13T07:03:23.000Z,40.04
2018-01-13T07:04:23.465Z,40.05
2018-01-13T07:05:23.931Z,40.04
2018-01-13T07:07:24.859Z,40.05
2018-01-13T07:08:25.329Z,40.06
2018-01-13T07:09:25.796Z,40.06
2018-01-13T07:10:26.262Z,40.03
2018-01-13T07:11:26.729Z,39.99
2018-01-13T07:12:27.196Z,39.99
2018-01-13T07:13:27.659Z,39.95
2018-01-13T07:14:28.123Z,39.93
2018-01-13T07:15:28.593Z,39.95
2018-01-13T07:16:29.065Z,39.88
2018-01-13T07:17:29.526Z,39.82
2018-01-13T07:18:29.989Z,39.74
2018-01-13T07:19:30.459Z,39.62
2018-01-13T07:20:30.927Z,39.51
2018-01-13T07:21:31.392Z,39.45
2018-01-13T07:22:31.855Z,39.37
2018-01-13T07:23:32.326Z,39.26
2018-01-13T07:24:32.793Z,39.20
2018-01-13T07:25:33.257Z,39.13
2018-01-13T07:26:33.722Z,39.04
2018-01-13T07:27:34.192Z,38.96
2018-01-13T07:28:34.659Z,38.94
2018-01-13T07:29:35.125Z,38.89
2018-01-13T07:30:35.590Z,38.84
2018-01-13T07:31:36.059Z,38.82
2018-01-13T07:32:36.527Z,38.78
2018-01-13T07:33:36.991Z,38.74
2018-01-13T07:34:37.457Z,38.72
2018-01-13T07:35:37.924Z,38.68
2018-01-13T07:36:38.387Z,38.63
2018-01-13T07:38:39.326Z,38.57
2018-01-13T07:39:39.793Z,38.51
2018-01-13T07:40:40.261Z,38.47
2018-01-13T07:41:40.726Z,38.44
2018-01-13T07:42:41.195Z,38.41
2018-01-13T07:43:41.661Z,38.40
2018-01-13T07:44:42.130Z,38.40
2018-01-13T07:45:42.591Z,38.38
2018-01-13T07:46:43.063Z,38.35
2018-01-13T07:48:43.997Z,38.28
2018-01-13T07:49:44.466Z,38.28
2018-01-13T07:50:44.934Z,38.25
2018-01-13T07:51:45.401Z,38.26
2018-01-13T07:52:45.866Z,38.23
2018-01-13T07:53:46.335Z,38.20
2018-01-13T07:54:46.804Z,38.19
2018-01-13T07:55:47.270Z,38.16
2018-01-13T07:56:47.737Z,38.15
2018-01-13T07:57:48.206Z,38.10
2018-01-13T07:58:48.672Z,38.09
2018-01-13T07:59:49.142Z,38.09
2018-01-13T08:00:49.609Z,38.10
2018-01-13T08:01:50.077Z,38.08
2018-01-13T08:02:50.541Z,38.06
2018-01-13T08:03:51.013Z,38.05
2018-01-13T08:06:52.414Z,37.99
2018-01-13T08:07:52.888Z,37.97
2018-01-13T08:08:53.354Z,37.95
2018-01-13T08:09:53.818Z,37.93
2018-01-13T08:10:54.292Z,37.90
2018-01-13T08:11:54.762Z,37.83
2018-01-13T08:12:55.230Z,37.80
2018-01-13T08:13:55.698Z,37.75
2018-01-13T08:14:56.167Z,37.77
2018-01-13T08:16:57.104Z,37.79
2018-01-13T08:17:57.572Z,37.79
2018-01-13T08:18:58.042Z,37.83
2018-01-13T08:20:58.974Z,37.85
2018-01-13T08:22:11.383Z,37.85
2018-01-13T08:22:59.918Z,37.88
2018-01-13T08:24:00.387Z,37.93
2018-01-13T08:25:00.857Z,37.95
2018-01-13T08:27:01.796Z,37.99
2018-01-13T08:28:02.259Z,38.01
2018-01-13T08:29:02.736Z,38.02
2018-01-13T08:30:03.203Z,38.04
2018-01-13T08:31:03.673Z,38.07
2018-01-13T08:32:04.142Z,38.09
2018-01-13T08:33:04.612Z,38.12
2018-01-13T08:34:05.080Z,38.13
2018-01-13T08:35:05.545Z,38.14
2018-01-13T08:36:06.016Z,38.17
2018-01-13T08:37:06.485Z,38.18
2018-01-13T08:38:06.955Z,38.22
2018-01-13T08:39:07.425Z,38.23
2018-01-13T08:40:07.896Z,38.25
2018-01-13T08:41:08.365Z,38.28
2018-01-13T08:42:08.862Z,38.31
2018-01-13T08:43:09.305Z,38.35
2018-01-13T08:44:09.780Z,38.38
2018-01-13T08:45:10.252Z,38.39
2018-01-13T08:46:10.714Z,38.42
2018-01-13T08:47:11.193Z,38.43
2018-01-13T08:48:11.661Z,38.47
2018-01-13T08:49:12.131Z,38.49
2018-01-13T08:51:13.070Z,38.59
2018-01-13T08:52:13.543Z,38.62
2018-01-13T08:53:14.008Z,38.64
2018-01-13T08:54:14.486Z,38.62
2018-01-13T08:55:14.953Z,38.61
2018-01-13T08:57:15.896Z,38.65
2018-01-13T08:58:16.364Z,38.67
2018-01-13T09:00:17.312Z,38.66
2018-01-13T09:01:17.781Z,38.71
2018-01-13T09:02:18.251Z,38.74
2018-01-13T09:03:18.716Z,38.76
2018-01-13T09:06:20.135Z,38.77
2018-01-13T09:07:20.604Z,38.79
2018-01-13T09:09:21.549Z,38.81
2018-01-13T09:10:22.018Z,38.82
2018-01-13T09:11:22.491Z,38.82
2018-01-13T09:12:22.964Z,38.83
2018-01-13T09:13:23.435Z,38.85
2018-01-13T09:14:23.903Z,38.86
2018-01-13T09:15:24.377Z,38.89
2018-01-13T09:16:24.848Z,38.88
2018-01-13T09:17:37.412Z,38.88
2018-01-13T09:18:25.791Z,38.87
2018-01-13T09:20:26.736Z,38.92
2018-01-13T09:21:27.209Z,38.95
2018-01-13T09:24:28.624Z,39.00
2018-01-13T09:25:29.094Z,39.00
2018-01-13T09:26:29.570Z,38.99
2018-01-13T09:27:30.042Z,39.03
2018-01-13T09:28:30.514Z,39.01
2018-01-13T09:29:30.981Z,39.00
2018-01-13T09:30:31.458Z,39.01
2018-01-13T09:31:31.930Z,39.03
2018-01-13T09:32:32.403Z,39.06
2018-01-13T09:33:32.876Z,39.09
2018-01-13T09:34:33.349Z,39.07
2018-01-13T09:35:33.823Z,39.04
2018-01-13T09:36:34.289Z,39.08
2018-01-13T09:37:34.766Z,39.07
2018-01-13T09:38:35.240Z,39.09
2018-01-13T09:39:35.711Z,39.10
2018-01-13T09:40:36.184Z,39.11
2018-01-13T09:41:36.656Z,39.12
2018-01-13T09:42:37.131Z,39.14
2018-01-13T09:43:37.603Z,39.17
2018-01-13T09:44:38.077Z,39.16
2018-01-13T09:45:38.550Z,39.18
2018-01-13T09:46:39.022Z,39.16
2018-01-13T09:47:39.495Z,39.18
2018-01-13T09:48:39.964Z,39.15
2018-01-13T09:49:40.443Z,39.13
2018-01-13T09:50:40.910Z,39.10
2018-01-13T09:52:41.862Z,39.05
2018-01-13T09:53:42.537Z,39.05
2018-01-13T09:55:39.828Z,39.03
2018-01-13T09:56:40.299Z,39.03
2018-01-13T09:57:40.774Z,39.03
2018-01-13T09:58:41.248Z,38.99
2018-01-13T10:00:42.196Z,38.97
2018-01-13T10:01:42.668Z,38.94
2018-01-13T10:02:43.142Z,38.93
2018-01-13T10:04:44.103Z,38.94
2018-01-13T10:05:44.563Z,38.97
2018-01-13T10:07:45.510Z,38.96
2018-01-13T10:08:45.984Z,38.98
2018-01-13T10:09:46.460Z,39.02
2018-01-13T10:10:46.933Z,39.04
2018-01-13T10:11:47.403Z,39.04
2018-01-13T10:12:47.882Z,39.07
2018-01-13T10:13:48.355Z,39.09
2018-01-13T10:14:48.881Z,39.15
2018-01-13T10:15:49.298Z,39.20
2018-01-13T10:17:50.253Z,39.30
2018-01-13T10:18:50.728Z,39.32
2018-01-13T10:19:51.201Z,39.35
2018-01-13T10:21:52.150Z,39.42
2018-01-13T10:22:52.619Z,39.47
2018-01-13T10:23:53.100Z,39.48
2018-01-13T10:24:53.575Z,39.50
2018-01-13T10:25:54.049Z,39.50
2018-01-13T10:26:54.517Z,39.53
2018-01-13T10:27:54.996Z,39.55
2018-01-13T10:28:55.472Z,39.61
2018-01-13T10:29:55.948Z,39.66
2018-01-13T10:30:56.423Z,39.70
2018-01-13T10:31:56.895Z,39.75
2018-01-13T10:32:57.370Z,39.80
2018-01-13T10:33:57.840Z,39.82
2018-01-13T10:34:58.323Z,39.87
2018-01-13T10:35:58.796Z,39.88
2018-01-13T10:36:59.269Z,39.89
2018-01-13T10:37:59.746Z,39.92
2018-01-13T10:39:00.222Z,39.92
2018-01-13T10:40:00.696Z,39.96
2018-01-13T10:41:01.170Z,40.00
2018-01-13T10:42:01.646Z,40.03
2018-01-13T10:43:02.122Z,40.05
2018-01-13T10:44:02.595Z,40.07
2018-01-13T10:45:03.065Z,40.10
2018-01-13T10:47:04.023Z,40.15
2018-01-13T10:49:04.972Z,40.18
2018-01-13T10:50:05.449Z,40.20
2018-01-13T10:51:05.921Z,40.21
2018-01-13T10:52:06.393Z,40.25
2018-01-13T10:53:06.884Z,40.29
2018-01-13T10:54:07.349Z,40.32
2018-01-13T10:55:07.825Z,40.35
2018-01-13T10:56:08.294Z,40.39
2018-01-13T10:57:08.775Z,40.38
2018-01-13T10:58:09.251Z,40.37
2018-01-13T10:59:09.726Z,40.40
2018-01-13T11:00:10.202Z,40.41
2018-01-13T11:01:10.673Z,40.45
2018-01-13T11:02:11.154Z,40.44
2018-01-13T11:03:11.629Z,40.43
2018-01-13T11:04:12.105Z,40.42
2018-01-13T11:05:12.575Z,40.44
2018-01-13T11:06:13.058Z,40.48
2018-01-13T11:07:13.532Z,40.43
2018-01-13T11:09:14.484Z,40.47
2018-01-13T11:10:14.960Z,40.46
2018-01-13T11:11:15.438Z,40.46
2018-01-13T11:12:15.912Z,40.49
2018-01-13T11:13:16.387Z,40.53
2018-01-13T11:14:16.865Z,40.56
2018-01-13T11:15:17.334Z,40.58
2018-01-13T11:16:17.814Z,40.54
2018-01-13T11:18:18.766Z,40.52
2018-01-13T11:19:19.245Z,40.52
2018-01-13T11:21:20.190Z,40.49
2018-01-13T11:22:20.671Z,40.51
2018-01-13T11:23:21.154Z,40.50
2018-01-13T11:25:22.099Z,40.58
2018-01-13T11:26:22.576Z,40.65
2018-01-13T11:27:23.053Z,40.78
2018-01-13T11:28:23.521Z,40.97
2018-01-13T11:29:24.005Z,41.10
2018-01-13T11:31:24.959Z,41.36
2018-01-13T11:32:25.426Z,41.53
2018-01-13T11:33:25.908Z,41.65
2018-01-13T11:35:26.905Z,41.96
2018-01-13T11:36:27.330Z,42.12
2018-01-13T11:37:27.805Z,42.31
2018-01-13T11:38:28.280Z,42.45
2018-01-13T11:39:28.755Z,42.61
2018-01-13T11:40:29.227Z,42.78
2018-01-13T11:41:29.697Z,43.00
2018-01-13T11:42:30.177Z,43.22
2018-01-13T11:43:30.650Z,43.40
2018-01-13T11:44:31.123Z,43.62
2018-01-13T11:45:31.647Z,43.81
2018-01-13T11:46:32.063Z,44.00
2018-01-13T11:47:32.540Z,44.21
2018-01-13T11:48:33.012Z,44.30
2018-01-13T11:49:33.490Z,44.34
2018-01-13T11:50:33.958Z,44.37
2018-01-13T11:51:34.431Z,44.40
2018-01-13T11:52:34.900Z,44.39
2018-01-13T11:53:35.368Z,44.40
2018-01-13T11:54:35.848Z,44.44
2018-01-13T11:56:36.791Z,44.35
2018-01-13T11:57:37.262Z,44.31
2018-01-13T11:58:37.733Z,44.22
2018-01-13T11:59:38.206Z,44.09
2018-01-13T12:00:38.677Z,43.92
2018-01-13T12:01:39.151Z,43.78
2018-01-13T12:02:39.623Z,43.67
2018-01-13T12:03:40.094Z,43.54
2018-01-13T12:04:40.563Z,43.44
2018-01-13T12:05:41.041Z,43.36
2018-01-13T12:07:41.983Z,43.17
2018-01-13T12:08:42.456Z,43.06
2018-01-13T12:09:42.926Z,42.95
2018-01-13T12:10:43.403Z,42.85
2018-01-13T12:12:44.347Z,42.70
2018-01-13T12:13:44.816Z,42.59
2018-01-13T12:14:45.295Z,42.52
2018-01-13T12:16:46.242Z,42.38
2018-01-13T12:18:47.189Z,42.17
2018-01-13T12:19:47.658Z,42.10
2018-01-13T12:20:48.136Z,42.00
2018-01-13T12:21:48.610Z,41.94
2018-01-13T12:22:49.082Z,41.87
2018-01-13T12:23:49.553Z,41.77
2018-01-13T12:24:50.033Z,41.70
2018-01-13T12:26:50.980Z,41.56
2018-01-13T12:28:51.933Z,41.45
2018-01-13T12:29:52.403Z,41.37
2018-01-13T12:30:52.875Z,41.30
2018-01-13T12:31:53.352Z,41.20
2018-01-13T12:32:53.828Z,41.12
2018-01-13T12:33:54.302Z,41.02
2018-01-13T12:34:54.779Z,40.99
2018-01-13T12:36:55.727Z,40.85
2018-01-13T12:37:56.202Z,40.79
2018-01-13T12:38:56.713Z,40.78
2018-01-13T12:39:57.156Z,40.73
2018-01-13T12:40:57.630Z,40.68
2018-01-13T12:41:58.101Z,40.65
2018-01-13T12:42:58.583Z,40.60
2018-01-13T12:43:59.057Z,40.54
2018-01-13T12:44:59.528Z,40.51
2018-01-13T12:46:00.011Z,40.46
2018-01-13T12:49:01.436Z,40.39
2018-01-13T12:50:01.910Z,40.38
2018-01-13T12:51:02.387Z,40.37
2018-01-13T12:52:02.906Z,40.35
2018-01-13T12:53:03.339Z,40.38
2018-01-13T12:54:03.815Z,40.43
2018-01-13T12:55:04.290Z,40.52
2018-01-13T12:56:04.767Z,40.67
2018-01-13T12:57:05.243Z,40.85
2018-01-13T12:59:06.194Z,41.25
2018-01-13T13:00:06.673Z,41.45
2018-01-13T13:02:07.621Z,41.87
2018-01-13T13:03:08.091Z,42.10
2018-01-13T13:05:09.046Z,42.51
2018-01-13T13:06:09.517Z,42.72
2018-01-13T13:07:09.997Z,42.92
2018-01-13T13:08:10.468Z,43.13
2018-01-13T13:09:10.942Z,43.33
2018-01-13T13:10:11.417Z,43.55
2018-01-13T13:11:11.892Z,43.80
2018-01-13T13:12:12.365Z,44.11
2018-01-13T13:13:12.835Z,44.41
2018-01-13T13:14:13.310Z,44.67
2018-01-13T13:15:13.782Z,44.94
2018-01-13T13:16:14.257Z,45.18
2018-01-13T13:17:14.722Z,45.42
2018-01-13T13:18:15.200Z,45.61
2018-01-13T13:19:15.673Z,45.71
2018-01-13T13:21:16.616Z,45.95
2018-01-13T13:22:17.087Z,46.03
2018-01-13T13:23:17.560Z,46.08
2018-01-13T13:24:18.034Z,46.06
2018-01-13T13:25:18.500Z,46.06
2018-01-13T13:26:18.977Z,46.07
2018-01-13T13:27:19.451Z,46.05
2018-01-13T13:28:19.919Z,46.01
2018-01-13T13:29:20.395Z,46.01
2018-01-13T13:30:20.863Z,45.95
2018-01-13T13:31:21.336Z,45.88
2018-01-13T13:32:21.808Z,45.85
2018-01-13T13:34:22.748Z,45.79
2018-01-13T13:36:23.697Z,45.68
2018-01-13T13:37:24.168Z,45.62
2018-01-13T13:40:25.590Z,45.41
2018-01-13T13:41:26.060Z,45.36
2018-01-13T13:42:26.532Z,45.25
2018-01-13T13:43:38.644Z,45.17
2018-01-13T13:44:27.480Z,45.11
2018-01-13T13:45:27.952Z,45.09
2018-01-13T13:46:28.422Z,45.04
2018-01-13T13:47:28.900Z,44.94
2018-01-13T13:48:29.372Z,44.91
2018-01-13T13:49:29.847Z,44.86
2018-01-13T13:50:30.321Z,44.78
2018-01-13T13:51:30.795Z,44.73
2018-01-13T13:52:31.272Z,44.64
2018-01-13T13:53:31.741Z,44.63
2018-01-13T13:54:32.217Z,44.60
2018-01-13T13:55:32.690Z,44.59
2018-01-13T13:56:33.166Z,44.55
2018-01-13T13:57:33.634Z,44.51
2018-01-13T13:58:34.167Z,44.47
2018-01-13T13:59:34.591Z,44.44
2018-01-13T14:00:35.064Z,44.40
2018-01-13T14:01:35.542Z,44.37
2018-01-13T14:03:36.483Z,44.26
2018-01-13T14:04:36.965Z,44.23
2018-01-13T14:05:37.438Z,44.26
2018-01-13T14:06:37.916Z,44.21
2018-01-13T14:08:38.864Z,44.14
2018-01-13T14:09:39.336Z,44.13
2018-01-13T14:10:39.816Z,44.12
2018-01-13T14:11:40.292Z,44.10
2018-01-13T14:12:40.766Z,44.09
2018-01-13T14:13:41.243Z,44.10
2018-01-13T14:14:41.718Z,44.10
2018-01-13T14:15:42.195Z,44.10
2018-01-13T14:16:42.677Z,44.11
2018-01-13T14:17:43.146Z,44.09
2018-01-13T14:18:43.623Z,44.09
2018-01-13T14:19:44.099Z,44.09
2018-01-13T14:20:44.577Z,44.13
2018-01-13T14:21:45.047Z,44.24
2018-01-13T14:22:45.526Z,44.37
2018-01-13T14:24:46.479Z,44.69
2018-01-13T14:25:46.953Z,44.86
2018-01-13T14:26:47.429Z,45.05
2018-01-13T14:27:47.901Z,45.31
2018-01-13T14:29:48.854Z,45.69
2018-01-13T14:30:49.330Z,45.90